sensor_id;sensor_type;location;lat;lon;timestamp;P1;durP1;ratioP1;P2;durP2;ratioP2
5391;SDS011;2719;53.624;9.786;2023-04-12T00:00:40;29.77;;;5.47;;
5391;SDS011;2719;53.624;9.786;2023-04-12T00:03:08;27.30;;;4.60;;
5391;SDS011;2719;53.624;9.786;2023-04-12T00:05:35;23.03;;;4.67;;
5391;SDS011;2719;53.624;9.786;2023-04-12T00:08:02;14.67;;;4.20;;
5391;SDS011;2719;53.624;9.786;2023-04-12T00:10:29;10.13;;;3.50;;
5391;SDS011;2719;53.624;9.786;2023-04-12T00:12:56;13.23;;;2.70;;
5391;SDS011;2719;53.624;9.786;2023-04-12T00:15:22;11.57;;;3.90;;
5391;SDS011;2719;53.624;9.786;2023-04-12T00:17:49;4.37;;;1.77;;
5391;SDS011;2719;53.624;9.786;2023-04-12T00:20:17;9.60;;;2.17;;
5391;SDS011;2719;53.624;9.786;2023-04-12T00:22:43;6.97;;;2.07;;
5391;SDS011;2719;53.624;9.786;2023-04-12T00:25:10;8.13;;;2.13;;
5391;SDS011;2719;53.624;9.786;2023-04-12T00:27:37;10.27;;;2.23;;
5391;SDS011;2719;53.624;9.786;2023-04-12T00:30:05;8.13;;;2.20;;
5391;SDS011;2719;53.624;9.786;2023-04-12T00:32:32;5.50;;;1.80;;
5391;SDS011;2719;53.624;9.786;2023-04-12T00:34:59;6.43;;;1.93;;
5391;SDS011;2719;53.624;9.786;2023-04-12T00:37:27;8.40;;;2.10;;
5391;SDS011;2719;53.624;9.786;2023-04-12T00:39:53;9.30;;;1.97;;
5391;SDS011;2719;53.624;9.786;2023-04-12T00:42:20;6.80;;;1.90;;
5391;SDS011;2719;53.624;9.786;2023-04-12T00:44:47;7.57;;;2.57;;
5391;SDS011;2719;53.624;9.786;2023-04-12T00:47:13;5.60;;;1.40;;
5391;SDS011;2719;53.624;9.786;2023-04-12T00:49:40;5.93;;;2.30;;
5391;SDS011;2719;53.624;9.786;2023-04-12T00:52:07;4.03;;;1.73;;
5391;SDS011;2719;53.624;9.786;2023-04-12T00:54:36;3.93;;;1.73;;
5391;SDS011;2719;53.624;9.786;2023-04-12T00:57:03;6.90;;;1.50;;
5391;SDS011;2719;53.624;9.786;2023-04-12T00:59:30;6.30;;;1.63;;
5391;SDS011;2719;53.624;9.786;2023-04-12T01:01:57;12.53;;;1.27;;
5391;SDS011;2719;53.624;9.786;2023-04-12T01:04:25;6.93;;;1.93;;
5391;SDS011;2719;53.624;9.786;2023-04-12T01:06:57;6.67;;;1.90;;
5391;SDS011;2719;53.624;9.786;2023-04-12T01:09:33;7.93;;;1.87;;
5391;SDS011;2719;53.624;9.786;2023-04-12T01:12:10;6.70;;;2.07;;
5391;SDS011;2719;53.624;9.786;2023-04-12T01:14:45;7.20;;;2.00;;
5391;SDS011;2719;53.624;9.786;2023-04-12T01:17:19;3.63;;;1.97;;
5391;SDS011;2719;53.624;9.786;2023-04-12T01:19:52;7.87;;;1.80;;
5391;SDS011;2719;53.624;9.786;2023-04-12T01:22:28;7.37;;;2.30;;
5391;SDS011;2719;53.624;9.786;2023-04-12T01:25:12;6.03;;;1.53;;
5391;SDS011;2719;53.624;9.786;2023-04-12T01:27:53;4.13;;;1.83;;
5391;SDS011;2719;53.624;9.786;2023-04-12T01:30:22;5.30;;;1.40;;
5391;SDS011;2719;53.624;9.786;2023-04-12T01:32:53;7.13;;;2.13;;
5391;SDS011;2719;53.624;9.786;2023-04-12T01:35:22;4.77;;;1.37;;
5391;SDS011;2719;53.624;9.786;2023-04-12T01:37:51;3.87;;;1.50;;
5391;SDS011;2719;53.624;9.786;2023-04-12T01:40:18;4.63;;;1.57;;
5391;SDS011;2719;53.624;9.786;2023-04-12T01:42:46;4.67;;;2.07;;
5391;SDS011;2719;53.624;9.786;2023-04-12T01:45:14;4.10;;;1.30;;
5391;SDS011;2719;53.624;9.786;2023-04-12T01:47:40;7.20;;;1.60;;
5391;SDS011;2719;53.624;9.786;2023-04-12T01:50:10;15.33;;;1.73;;
5391;SDS011;2719;53.624;9.786;2023-04-12T01:52:44;4.57;;;1.13;;
5391;SDS011;2719;53.624;9.786;2023-04-12T01:55:17;3.70;;;1.00;;
5391;SDS011;2719;53.624;9.786;2023-04-12T01:57:48;5.47;;;2.07;;
5391;SDS011;2719;53.624;9.786;2023-04-12T02:00:18;4.43;;;1.10;;
5391;SDS011;2719;53.624;9.786;2023-04-12T02:02:45;3.43;;;1.27;;
5391;SDS011;2719;53.624;9.786;2023-04-12T02:05:12;7.60;;;1.83;;
5391;SDS011;2719;53.624;9.786;2023-04-12T02:07:40;7.57;;;1.50;;
5391;SDS011;2719;53.624;9.786;2023-04-12T02:10:08;2.23;;;1.00;;
5391;SDS011;2719;53.624;9.786;2023-04-12T02:12:38;4.80;;;0.97;;
5391;SDS011;2719;53.624;9.786;2023-04-12T02:15:05;14.90;;;1.03;;
5391;SDS011;2719;53.624;9.786;2023-04-12T02:17:34;4.13;;;1.20;;
5391;SDS011;2719;53.624;9.786;2023-04-12T02:20:01;6.83;;;1.13;;
5391;SDS011;2719;53.624;9.786;2023-04-12T02:22:28;3.10;;;0.73;;
5391;SDS011;2719;53.624;9.786;2023-04-12T02:24:55;11.20;;;1.00;;
5391;SDS011;2719;53.624;9.786;2023-04-12T02:27:21;3.07;;;1.10;;
5391;SDS011;2719;53.624;9.786;2023-04-12T02:29:48;9.73;;;1.00;;
5391;SDS011;2719;53.624;9.786;2023-04-12T02:32:14;5.37;;;0.77;;
5391;SDS011;2719;53.624;9.786;2023-04-12T02:34:42;7.07;;;1.10;;
5391;SDS011;2719;53.624;9.786;2023-04-12T02:37:15;6.33;;;1.03;;
5391;SDS011;2719;53.624;9.786;2023-04-12T02:39:41;3.00;;;0.70;;
5391;SDS011;2719;53.624;9.786;2023-04-12T02:42:08;2.77;;;0.70;;
5391;SDS011;2719;53.624;9.786;2023-04-12T02:44:35;1.47;;;0.60;;
5391;SDS011;2719;53.624;9.786;2023-04-12T02:47:02;4.47;;;0.93;;
5391;SDS011;2719;53.624;9.786;2023-04-12T02:49:29;4.40;;;0.83;;
5391;SDS011;2719;53.624;9.786;2023-04-12T02:51:57;3.50;;;0.70;;
5391;SDS011;2719;53.624;9.786;2023-04-12T02:54:23;3.17;;;0.90;;
5391;SDS011;2719;53.624;9.786;2023-04-12T02:56:51;3.43;;;1.00;;
5391;SDS011;2719;53.624;9.786;2023-04-12T02:59:17;4.50;;;0.90;;
5391;SDS011;2719;53.624;9.786;2023-04-12T03:01:44;4.30;;;2.23;;
5391;SDS011;2719;53.624;9.786;2023-04-12T03:04:11;7.60;;;1.00;;
5391;SDS011;2719;53.624;9.786;2023-04-12T03:06:37;10.73;;;1.43;;
5391;SDS011;2719;53.624;9.786;2023-04-12T03:09:17;6.63;;;1.03;;
5391;SDS011;2719;53.624;9.786;2023-04-12T03:11:45;1.30;;;0.77;;
5391;SDS011;2719;53.624;9.786;2023-04-12T03:14:11;4.30;;;0.80;;
5391;SDS011;2719;53.624;9.786;2023-04-12T03:16:38;2.70;;;0.70;;
5391;SDS011;2719;53.624;9.786;2023-04-12T03:19:05;7.03;;;2.00;;
5391;SDS011;2719;53.624;9.786;2023-04-12T03:21:31;5.33;;;0.80;;
5391;SDS011;2719;53.624;9.786;2023-04-12T03:23:58;3.27;;;0.70;;
5391;SDS011;2719;53.624;9.786;2023-04-12T03:26:26;2.30;;;0.70;;
5391;SDS011;2719;53.624;9.786;2023-04-12T03:28:54;4.63;;;0.73;;
5391;SDS011;2719;53.624;9.786;2023-04-12T03:31:25;11.10;;;1.80;;
5391;SDS011;2719;53.624;9.786;2023-04-12T03:33:52;2.90;;;1.57;;
5391;SDS011;2719;53.624;9.786;2023-04-12T03:36:19;3.70;;;0.80;;
5391;SDS011;2719;53.624;9.786;2023-04-12T03:38:46;2.13;;;1.00;;
5391;SDS011;2719;53.624;9.786;2023-04-12T03:41:12;4.67;;;0.60;;
5391;SDS011;2719;53.624;9.786;2023-04-12T03:43:40;3.77;;;0.83;;
5391;SDS011;2719;53.624;9.786;2023-04-12T03:46:07;9.93;;;0.60;;
5391;SDS011;2719;53.624;9.786;2023-04-12T03:48:34;3.93;;;0.63;;
5391;SDS011;2719;53.624;9.786;2023-04-12T03:51:01;3.13;;;0.97;;
5391;SDS011;2719;53.624;9.786;2023-04-12T03:53:31;4.07;;;0.70;;
5391;SDS011;2719;53.624;9.786;2023-04-12T03:55:58;9.10;;;1.10;;
5391;SDS011;2719;53.624;9.786;2023-04-12T03:58:24;1.83;;;0.90;;
5391;SDS011;2719;53.624;9.786;2023-04-12T04:00:52;4.90;;;0.80;;
5391;SDS011;2719;53.624;9.786;2023-04-12T04:03:19;3.13;;;0.70;;
5391;SDS011;2719;53.624;9.786;2023-04-12T04:05:50;3.87;;;0.90;;
5391;SDS011;2719;53.624;9.786;2023-04-12T04:08:17;6.60;;;0.90;;
5391;SDS011;2719;53.624;9.786;2023-04-12T04:10:44;2.97;;;1.00;;
5391;SDS011;2719;53.624;9.786;2023-04-12T04:13:11;9.10;;;1.47;;
5391;SDS011;2719;53.624;9.786;2023-04-12T04:15:37;4.83;;;1.00;;
5391;SDS011;2719;53.624;9.786;2023-04-12T04:18:05;11.67;;;1.50;;
5391;SDS011;2719;53.624;9.786;2023-04-12T04:20:32;4.20;;;1.00;;
5391;SDS011;2719;53.624;9.786;2023-04-12T04:22:59;6.93;;;0.80;;
5391;SDS011;2719;53.624;9.786;2023-04-12T04:25:25;4.70;;;1.10;;
5391;SDS011;2719;53.624;9.786;2023-04-12T04:27:53;3.30;;;1.40;;
5391;SDS011;2719;53.624;9.786;2023-04-12T04:30:20;6.23;;;1.47;;
5391;SDS011;2719;53.624;9.786;2023-04-12T04:32:48;6.33;;;1.40;;
5391;SDS011;2719;53.624;9.786;2023-04-12T04:35:16;3.63;;;1.10;;
5391;SDS011;2719;53.624;9.786;2023-04-12T04:37:42;6.40;;;1.00;;
5391;SDS011;2719;53.624;9.786;2023-04-12T04:40:09;4.87;;;1.10;;
5391;SDS011;2719;53.624;9.786;2023-04-12T04:42:36;12.27;;;1.70;;
5391;SDS011;2719;53.624;9.786;2023-04-12T04:45:04;2.43;;;0.80;;
5391;SDS011;2719;53.624;9.786;2023-04-12T04:47:37;8.67;;;1.23;;
5391;SDS011;2719;53.624;9.786;2023-04-12T04:50:04;4.50;;;1.20;;
5391;SDS011;2719;53.624;9.786;2023-04-12T04:52:33;2.07;;;0.70;;
5391;SDS011;2719;53.624;9.786;2023-04-12T04:55:01;9.23;;;1.53;;
5391;SDS011;2719;53.624;9.786;2023-04-12T04:57:28;5.97;;;0.97;;
5391;SDS011;2719;53.624;9.786;2023-04-12T04:59:55;9.60;;;1.17;;
5391;SDS011;2719;53.624;9.786;2023-04-12T05:02:21;6.53;;;1.13;;
5391;SDS011;2719;53.624;9.786;2023-04-12T05:04:48;2.67;;;0.70;;
5391;SDS011;2719;53.624;9.786;2023-04-12T05:07:15;2.50;;;0.90;;
5391;SDS011;2719;53.624;9.786;2023-04-12T05:09:43;5.63;;;0.70;;
5391;SDS011;2719;53.624;9.786;2023-04-12T05:12:09;5.27;;;0.87;;
5391;SDS011;2719;53.624;9.786;2023-04-12T05:14:36;8.30;;;1.07;;
5391;SDS011;2719;53.624;9.786;2023-04-12T05:17:04;2.33;;;1.00;;
5391;SDS011;2719;53.624;9.786;2023-04-12T05:19:30;3.63;;;1.03;;
5391;SDS011;2719;53.624;9.786;2023-04-12T05:21:57;2.87;;;0.93;;
5391;SDS011;2719;53.624;9.786;2023-04-12T05:24:24;4.50;;;0.80;;
5391;SDS011;2719;53.624;9.786;2023-04-12T05:26:51;3.93;;;1.00;;
5391;SDS011;2719;53.624;9.786;2023-04-12T05:29:18;1.20;;;0.67;;
5391;SDS011;2719;53.624;9.786;2023-04-12T05:31:45;6.63;;;1.10;;
5391;SDS011;2719;53.624;9.786;2023-04-12T05:34:11;6.00;;;1.20;;
5391;SDS011;2719;53.624;9.786;2023-04-12T05:36:38;3.37;;;0.70;;
5391;SDS011;2719;53.624;9.786;2023-04-12T05:39:05;1.13;;;0.70;;
5391;SDS011;2719;53.624;9.786;2023-04-12T05:41:31;5.03;;;1.73;;
5391;SDS011;2719;53.624;9.786;2023-04-12T05:43:59;5.93;;;0.90;;
5391;SDS011;2719;53.624;9.786;2023-04-12T05:46:27;7.60;;;0.87;;
5391;SDS011;2719;53.624;9.786;2023-04-12T05:48:54;1.13;;;0.80;;
5391;SDS011;2719;53.624;9.786;2023-04-12T05:51:21;1.73;;;0.60;;
5391;SDS011;2719;53.624;9.786;2023-04-12T05:53:47;5.50;;;1.10;;
5391;SDS011;2719;53.624;9.786;2023-04-12T05:56:14;3.17;;;0.80;;
5391;SDS011;2719;53.624;9.786;2023-04-12T05:58:41;9.03;;;1.10;;
5391;SDS011;2719;53.624;9.786;2023-04-12T06:01:09;6.23;;;0.93;;
5391;SDS011;2719;53.624;9.786;2023-04-12T06:03:35;5.13;;;1.07;;
5391;SDS011;2719;53.624;9.786;2023-04-12T06:06:05;3.57;;;1.00;;
5391;SDS011;2719;53.624;9.786;2023-04-12T06:08:32;8.63;;;1.10;;
5391;SDS011;2719;53.624;9.786;2023-04-12T06:11:00;1.77;;;0.80;;
5391;SDS011;2719;53.624;9.786;2023-04-12T06:13:26;2.83;;;0.80;;
5391;SDS011;2719;53.624;9.786;2023-04-12T06:15:53;4.00;;;0.90;;
5391;SDS011;2719;53.624;9.786;2023-04-12T06:18:21;5.07;;;0.87;;
5391;SDS011;2719;53.624;9.786;2023-04-12T06:20:47;3.20;;;0.77;;
5391;SDS011;2719;53.624;9.786;2023-04-12T06:23:14;3.50;;;1.00;;
5391;SDS011;2719;53.624;9.786;2023-04-12T06:25:43;6.40;;;0.90;;
5391;SDS011;2719;53.624;9.786;2023-04-12T06:28:10;2.03;;;0.90;;
5391;SDS011;2719;53.624;9.786;2023-04-12T06:30:36;1.63;;;0.80;;
5391;SDS011;2719;53.624;9.786;2023-04-12T06:33:03;5.33;;;0.90;;
5391;SDS011;2719;53.624;9.786;2023-04-12T06:35:31;4.30;;;0.80;;
5391;SDS011;2719;53.624;9.786;2023-04-12T06:37:57;4.23;;;1.07;;
5391;SDS011;2719;53.624;9.786;2023-04-12T06:40:24;3.30;;;1.00;;
5391;SDS011;2719;53.624;9.786;2023-04-12T06:42:51;6.17;;;0.80;;
5391;SDS011;2719;53.624;9.786;2023-04-12T06:45:17;2.83;;;1.30;;
5391;SDS011;2719;53.624;9.786;2023-04-12T06:47:44;4.83;;;0.70;;
5391;SDS011;2719;53.624;9.786;2023-04-12T06:50:11;10.90;;;3.17;;
5391;SDS011;2719;53.624;9.786;2023-04-12T06:52:39;1.50;;;1.40;;
5391;SDS011;2719;53.624;9.786;2023-04-12T06:55:06;3.03;;;1.10;;
5391;SDS011;2719;53.624;9.786;2023-04-12T06:57:33;3.83;;;1.10;;
5391;SDS011;2719;53.624;9.786;2023-04-12T07:00:01;3.10;;;0.90;;
5391;SDS011;2719;53.624;9.786;2023-04-12T07:02:28;2.10;;;0.63;;
5391;SDS011;2719;53.624;9.786;2023-04-12T07:04:54;4.97;;;0.90;;
5391;SDS011;2719;53.624;9.786;2023-04-12T07:07:21;1.67;;;0.90;;
5391;SDS011;2719;53.624;9.786;2023-04-12T07:09:50;8.33;;;1.00;;
5391;SDS011;2719;53.624;9.786;2023-04-12T07:12:17;5.80;;;0.90;;
5391;SDS011;2719;53.624;9.786;2023-04-12T07:14:43;2.50;;;0.80;;
5391;SDS011;2719;53.624;9.786;2023-04-12T07:17:10;1.60;;;0.83;;
5391;SDS011;2719;53.624;9.786;2023-04-12T07:19:37;9.40;;;2.30;;
5391;SDS011;2719;53.624;9.786;2023-04-12T07:22:04;2.30;;;1.10;;
5391;SDS011;2719;53.624;9.786;2023-04-12T07:24:31;5.90;;;0.70;;
5391;SDS011;2719;53.624;9.786;2023-04-12T07:26:59;7.33;;;0.90;;
5391;SDS011;2719;53.624;9.786;2023-04-12T07:29:25;3.47;;;0.87;;
5391;SDS011;2719;53.624;9.786;2023-04-12T07:31:52;11.73;;;1.13;;
5391;SDS011;2719;53.624;9.786;2023-04-12T07:34:19;10.43;;;0.90;;
5391;SDS011;2719;53.624;9.786;2023-04-12T07:36:45;6.97;;;1.47;;
5391;SDS011;2719;53.624;9.786;2023-04-12T07:39:12;1.00;;;0.90;;
5391;SDS011;2719;53.624;9.786;2023-04-12T07:41:39;2.50;;;1.10;;
5391;SDS011;2719;53.624;9.786;2023-04-12T07:44:08;4.70;;;1.00;;
5391;SDS011;2719;53.624;9.786;2023-04-12T07:46:35;3.33;;;0.63;;
5391;SDS011;2719;53.624;9.786;2023-04-12T07:49:01;7.73;;;1.07;;
5391;SDS011;2719;53.624;9.786;2023-04-12T07:51:28;3.70;;;0.73;;
5391;SDS011;2719;53.624;9.786;2023-04-12T07:53:55;3.30;;;0.80;;
5391;SDS011;2719;53.624;9.786;2023-04-12T07:56:21;2.33;;;0.80;;
5391;SDS011;2719;53.624;9.786;2023-04-12T07:58:48;6.30;;;0.80;;
5391;SDS011;2719;53.624;9.786;2023-04-12T08:01:16;9.90;;;0.90;;
5391;SDS011;2719;53.624;9.786;2023-04-12T08:03:42;2.67;;;0.87;;
5391;SDS011;2719;53.624;9.786;2023-04-12T08:06:09;4.40;;;0.80;;
5391;SDS011;2719;53.624;9.786;2023-04-12T08:08:36;6.83;;;1.20;;
5391;SDS011;2719;53.624;9.786;2023-04-12T08:11:02;5.93;;;1.30;;
5391;SDS011;2719;53.624;9.786;2023-04-12T08:13:30;5.13;;;1.10;;
5391;SDS011;2719;53.624;9.786;2023-04-12T08:15:57;6.17;;;1.10;;
5391;SDS011;2719;53.624;9.786;2023-04-12T08:18:25;9.03;;;0.87;;
5391;SDS011;2719;53.624;9.786;2023-04-12T08:20:53;2.23;;;1.20;;
5391;SDS011;2719;53.624;9.786;2023-04-12T08:23:19;4.90;;;1.17;;
5391;SDS011;2719;53.624;9.786;2023-04-12T08:25:47;3.07;;;1.37;;
5391;SDS011;2719;53.624;9.786;2023-04-12T08:28:13;3.43;;;1.37;;
5391;SDS011;2719;53.624;9.786;2023-04-12T08:30:41;3.83;;;0.90;;
5391;SDS011;2719;53.624;9.786;2023-04-12T08:33:08;2.93;;;0.93;;
5391;SDS011;2719;53.624;9.786;2023-04-12T08:35:36;2.60;;;0.70;;
5391;SDS011;2719;53.624;9.786;2023-04-12T08:38:03;3.80;;;1.13;;
5391;SDS011;2719;53.624;9.786;2023-04-12T08:40:31;6.03;;;1.03;;
5391;SDS011;2719;53.624;9.786;2023-04-12T08:42:58;2.87;;;0.73;;
5391;SDS011;2719;53.624;9.786;2023-04-12T08:45:27;3.63;;;1.00;;
5391;SDS011;2719;53.624;9.786;2023-04-12T08:47:54;3.50;;;1.10;;
5391;SDS011;2719;53.624;9.786;2023-04-12T08:50:21;9.30;;;1.00;;
5391;SDS011;2719;53.624;9.786;2023-04-12T08:52:50;4.90;;;0.97;;
5391;SDS011;2719;53.624;9.786;2023-04-12T08:55:18;8.63;;;1.17;;
5391;SDS011;2719;53.624;9.786;2023-04-12T08:57:44;4.30;;;1.17;;
5391;SDS011;2719;53.624;9.786;2023-04-12T09:00:13;2.37;;;1.03;;
5391;SDS011;2719;53.624;9.786;2023-04-12T09:02:42;4.97;;;0.70;;
5391;SDS011;2719;53.624;9.786;2023-04-12T09:05:11;6.47;;;0.83;;
5391;SDS011;2719;53.624;9.786;2023-04-12T09:07:38;0.97;;;0.90;;
5391;SDS011;2719;53.624;9.786;2023-04-12T09:10:07;3.80;;;1.00;;
5391;SDS011;2719;53.624;9.786;2023-04-12T09:12:34;3.33;;;0.80;;
5391;SDS011;2719;53.624;9.786;2023-04-12T09:15:04;4.70;;;1.00;;
5391;SDS011;2719;53.624;9.786;2023-04-12T09:17:33;2.00;;;0.80;;
5391;SDS011;2719;53.624;9.786;2023-04-12T09:20:02;2.10;;;0.80;;
5391;SDS011;2719;53.624;9.786;2023-04-12T09:22:50;4.97;;;0.80;;
5391;SDS011;2719;53.624;9.786;2023-04-12T09:25:32;3.43;;;1.00;;
5391;SDS011;2719;53.624;9.786;2023-04-12T09:28:02;1.63;;;1.00;;
5391;SDS011;2719;53.624;9.786;2023-04-12T09:30:33;2.20;;;0.83;;
5391;SDS011;2719;53.624;9.786;2023-04-12T09:33:09;2.67;;;0.80;;
5391;SDS011;2719;53.624;9.786;2023-04-12T09:35:36;2.97;;;1.53;;
5391;SDS011;2719;53.624;9.786;2023-04-12T09:38:05;2.40;;;0.80;;
5391;SDS011;2719;53.624;9.786;2023-04-12T09:40:34;3.30;;;0.73;;
5391;SDS011;2719;53.624;9.786;2023-04-12T09:43:02;7.53;;;1.17;;
5391;SDS011;2719;53.624;9.786;2023-04-12T09:45:32;2.40;;;0.73;;
5391;SDS011;2719;53.624;9.786;2023-04-12T09:48:01;2.80;;;1.13;;
5391;SDS011;2719;53.624;9.786;2023-04-12T09:50:29;2.30;;;1.43;;
5391;SDS011;2719;53.624;9.786;2023-04-12T09:52:58;1.93;;;0.97;;
5391;SDS011;2719;53.624;9.786;2023-04-12T09:55:26;2.97;;;1.10;;
5391;SDS011;2719;53.624;9.786;2023-04-12T09:57:55;1.30;;;0.90;;
5391;SDS011;2719;53.624;9.786;2023-04-12T10:00:25;11.10;;;1.17;;
5391;SDS011;2719;53.624;9.786;2023-04-12T10:02:53;2.43;;;0.87;;
5391;SDS011;2719;53.624;9.786;2023-04-12T10:05:21;2.17;;;0.70;;
5391;SDS011;2719;53.624;9.786;2023-04-12T10:07:49;4.00;;;1.00;;
5391;SDS011;2719;53.624;9.786;2023-04-12T10:10:17;1.10;;;0.77;;
5391;SDS011;2719;53.624;9.786;2023-04-12T10:12:45;5.90;;;2.30;;
5391;SDS011;2719;53.624;9.786;2023-04-12T10:15:15;4.07;;;1.20;;
5391;SDS011;2719;53.624;9.786;2023-04-12T10:17:45;5.13;;;1.20;;
5391;SDS011;2719;53.624;9.786;2023-04-12T10:20:13;10.53;;;1.37;;
5391;SDS011;2719;53.624;9.786;2023-04-12T10:22:41;4.20;;;0.97;;
5391;SDS011;2719;53.624;9.786;2023-04-12T10:25:09;3.17;;;1.17;;
5391;SDS011;2719;53.624;9.786;2023-04-12T10:27:38;3.13;;;0.90;;
5391;SDS011;2719;53.624;9.786;2023-04-12T10:30:21;4.53;;;0.60;;
5391;SDS011;2719;53.624;9.786;2023-04-12T10:32:49;4.37;;;0.70;;
5391;SDS011;2719;53.624;9.786;2023-04-12T10:35:51;11.90;;;1.13;;
5391;SDS011;2719;53.624;9.786;2023-04-12T10:38:24;4.43;;;0.70;;
5391;SDS011;2719;53.624;9.786;2023-04-12T10:41:09;4.57;;;1.37;;
5391;SDS011;2719;53.624;9.786;2023-04-12T10:43:40;5.93;;;0.80;;
5391;SDS011;2719;53.624;9.786;2023-04-12T10:46:07;2.90;;;0.90;;
5391;SDS011;2719;53.624;9.786;2023-04-12T10:48:57;4.13;;;0.90;;
5391;SDS011;2719;53.624;9.786;2023-04-12T10:51:33;4.17;;;0.83;;
5391;SDS011;2719;53.624;9.786;2023-04-12T10:56:59;3.00;;;0.90;;
5391;SDS011;2719;53.624;9.786;2023-04-12T10:59:26;5.53;;;0.90;;
5391;SDS011;2719;53.624;9.786;2023-04-12T11:02:18;2.10;;;0.80;;
5391;SDS011;2719;53.624;9.786;2023-04-12T11:05:03;2.43;;;0.67;;
5391;SDS011;2719;53.624;9.786;2023-04-12T11:07:38;2.30;;;0.80;;
5391;SDS011;2719;53.624;9.786;2023-04-12T11:10:11;2.30;;;1.03;;
5391;SDS011;2719;53.624;9.786;2023-04-12T11:12:39;5.50;;;0.90;;
5391;SDS011;2719;53.624;9.786;2023-04-12T11:15:09;2.50;;;0.70;;
5391;SDS011;2719;53.624;9.786;2023-04-12T11:17:38;4.87;;;0.73;;
5391;SDS011;2719;53.624;9.786;2023-04-12T11:20:09;3.37;;;0.70;;
5391;SDS011;2719;53.624;9.786;2023-04-12T11:22:36;2.53;;;0.70;;
5391;SDS011;2719;53.624;9.786;2023-04-12T11:25:04;1.13;;;0.67;;
5391;SDS011;2719;53.624;9.786;2023-04-12T11:27:31;0.90;;;0.60;;
5391;SDS011;2719;53.624;9.786;2023-04-12T11:29:58;8.50;;;1.37;;
5391;SDS011;2719;53.624;9.786;2023-04-12T11:32:26;3.90;;;0.87;;
5391;SDS011;2719;53.624;9.786;2023-04-12T11:34:55;1.30;;;0.93;;
5391;SDS011;2719;53.624;9.786;2023-04-12T11:37:24;2.70;;;0.90;;
5391;SDS011;2719;53.624;9.786;2023-04-12T11:39:52;5.33;;;1.07;;
5391;SDS011;2719;53.624;9.786;2023-04-12T11:42:21;3.80;;;0.80;;
5391;SDS011;2719;53.624;9.786;2023-04-12T11:44:49;4.80;;;0.80;;
5391;SDS011;2719;53.624;9.786;2023-04-12T11:47:17;4.30;;;0.60;;
5391;SDS011;2719;53.624;9.786;2023-04-12T11:49:45;5.43;;;0.70;;
5391;SDS011;2719;53.624;9.786;2023-04-12T11:52:13;4.10;;;0.90;;
5391;SDS011;2719;53.624;9.786;2023-04-12T11:54:43;3.03;;;0.60;;
5391;SDS011;2719;53.624;9.786;2023-04-12T11:57:13;3.97;;;0.80;;
5391;SDS011;2719;53.624;9.786;2023-04-12T11:59:42;1.67;;;0.60;;
5391;SDS011;2719;53.624;9.786;2023-04-12T12:02:10;1.53;;;0.77;;
5391;SDS011;2719;53.624;9.786;2023-04-12T12:04:38;3.77;;;0.93;;
5391;SDS011;2719;53.624;9.786;2023-04-12T12:07:05;2.20;;;0.70;;
5391;SDS011;2719;53.624;9.786;2023-04-12T12:09:32;3.23;;;0.90;;
5391;SDS011;2719;53.624;9.786;2023-04-12T12:12:01;5.80;;;0.90;;
5391;SDS011;2719;53.624;9.786;2023-04-12T12:14:31;2.80;;;0.67;;
5391;SDS011;2719;53.624;9.786;2023-04-12T12:16:59;2.37;;;0.83;;
5391;SDS011;2719;53.624;9.786;2023-04-12T12:19:26;4.80;;;0.80;;
5391;SDS011;2719;53.624;9.786;2023-04-12T12:22:03;2.70;;;1.00;;
5391;SDS011;2719;53.624;9.786;2023-04-12T12:24:37;2.60;;;0.90;;
5391;SDS011;2719;53.624;9.786;2023-04-12T12:27:05;5.70;;;0.63;;
5391;SDS011;2719;53.624;9.786;2023-04-12T12:29:35;4.20;;;0.63;;
5391;SDS011;2719;53.624;9.786;2023-04-12T12:32:08;3.20;;;0.80;;
5391;SDS011;2719;53.624;9.786;2023-04-12T12:34:36;2.07;;;0.53;;
5391;SDS011;2719;53.624;9.786;2023-04-12T12:37:05;3.57;;;0.60;;
5391;SDS011;2719;53.624;9.786;2023-04-12T12:39:33;6.43;;;0.70;;
5391;SDS011;2719;53.624;9.786;2023-04-12T12:42:00;4.37;;;0.87;;
5391;SDS011;2719;53.624;9.786;2023-04-12T12:44:30;7.33;;;0.70;;
5391;SDS011;2719;53.624;9.786;2023-04-12T12:46:58;2.17;;;0.50;;
5391;SDS011;2719;53.624;9.786;2023-04-12T12:49:25;3.73;;;0.60;;
5391;SDS011;2719;53.624;9.786;2023-04-12T12:51:52;2.73;;;1.07;;
5391;SDS011;2719;53.624;9.786;2023-04-12T12:54:19;1.30;;;0.73;;
5391;SDS011;2719;53.624;9.786;2023-04-12T12:56:45;1.63;;;0.70;;
5391;SDS011;2719;53.624;9.786;2023-04-12T12:59:12;4.50;;;1.57;;
5391;SDS011;2719;53.624;9.786;2023-04-12T13:01:40;1.47;;;0.90;;
5391;SDS011;2719;53.624;9.786;2023-04-12T13:04:07;2.03;;;1.13;;
5391;SDS011;2719;53.624;9.786;2023-04-12T13:06:33;4.30;;;1.83;;
5391;SDS011;2719;53.624;9.786;2023-04-12T13:09:00;3.07;;;1.27;;
5391;SDS011;2719;53.624;9.786;2023-04-12T13:11:27;6.43;;;2.43;;
5391;SDS011;2719;53.624;9.786;2023-04-12T13:13:53;7.00;;;2.20;;
5391;SDS011;2719;53.624;9.786;2023-04-12T13:16:20;7.67;;;2.53;;
5391;SDS011;2719;53.624;9.786;2023-04-12T13:18:48;5.53;;;1.63;;
5391;SDS011;2719;53.624;9.786;2023-04-12T13:21:15;5.47;;;2.07;;
5391;SDS011;2719;53.624;9.786;2023-04-12T13:23:41;5.90;;;1.17;;
5391;SDS011;2719;53.624;9.786;2023-04-12T13:26:08;4.13;;;1.17;;
5391;SDS011;2719;53.624;9.786;2023-04-12T13:28:34;3.57;;;1.20;;
5391;SDS011;2719;53.624;9.786;2023-04-12T13:31:01;3.00;;;1.40;;
5391;SDS011;2719;53.624;9.786;2023-04-12T13:33:28;3.23;;;1.33;;
5391;SDS011;2719;53.624;9.786;2023-04-12T13:35:56;7.50;;;0.97;;
5391;SDS011;2719;53.624;9.786;2023-04-12T13:38:22;4.47;;;1.20;;
5391;SDS011;2719;53.624;9.786;2023-04-12T13:40:49;7.40;;;1.30;;
5391;SDS011;2719;53.624;9.786;2023-04-12T13:43:16;3.70;;;1.27;;
5391;SDS011;2719;53.624;9.786;2023-04-12T13:45:42;10.03;;;1.47;;
5391;SDS011;2719;53.624;9.786;2023-04-12T13:48:09;8.20;;;1.23;;
5391;SDS011;2719;53.624;9.786;2023-04-12T13:50:36;3.90;;;1.00;;
5391;SDS011;2719;53.624;9.786;2023-04-12T13:53:04;5.43;;;1.10;;
5391;SDS011;2719;53.624;9.786;2023-04-12T13:55:31;2.60;;;0.90;;
5391;SDS011;2719;53.624;9.786;2023-04-12T13:57:57;6.17;;;0.97;;
5391;SDS011;2719;53.624;9.786;2023-04-12T14:00:24;3.47;;;1.33;;
5391;SDS011;2719;53.624;9.786;2023-04-12T14:02:51;10.40;;;1.97;;
5391;SDS011;2719;53.624;9.786;2023-04-12T14:05:17;3.07;;;0.93;;
5391;SDS011;2719;53.624;9.786;2023-04-12T14:07:44;4.37;;;1.50;;
5391;SDS011;2719;53.624;9.786;2023-04-12T14:10:13;5.07;;;1.20;;
5391;SDS011;2719;53.624;9.786;2023-04-12T14:12:40;4.73;;;2.03;;
5391;SDS011;2719;53.624;9.786;2023-04-12T14:15:07;5.73;;;1.67;;
5391;SDS011;2719;53.624;9.786;2023-04-12T14:17:34;5.40;;;1.50;;
5391;SDS011;2719;53.624;9.786;2023-04-12T14:20:00;3.33;;;1.40;;
5391;SDS011;2719;53.624;9.786;2023-04-12T14:22:29;2.57;;;0.90;;
5391;SDS011;2719;53.624;9.786;2023-04-12T14:24:56;4.07;;;1.37;;
5391;SDS011;2719;53.624;9.786;2023-04-12T14:27:24;3.17;;;1.27;;
5391;SDS011;2719;53.624;9.786;2023-04-12T14:29:51;3.80;;;1.00;;
5391;SDS011;2719;53.624;9.786;2023-04-12T14:32:17;4.97;;;1.00;;
5391;SDS011;2719;53.624;9.786;2023-04-12T14:34:44;3.37;;;1.10;;
5391;SDS011;2719;53.624;9.786;2023-04-12T14:37:11;1.90;;;1.00;;
5391;SDS011;2719;53.624;9.786;2023-04-12T14:39:37;3.90;;;0.80;;
5391;SDS011;2719;53.624;9.786;2023-04-12T14:42:04;5.07;;;1.00;;
5391;SDS011;2719;53.624;9.786;2023-04-12T14:44:32;4.87;;;1.17;;
5391;SDS011;2719;53.624;9.786;2023-04-12T14:46:59;1.20;;;0.70;;
5391;SDS011;2719;53.624;9.786;2023-04-12T14:49:26;2.83;;;1.27;;
5391;SDS011;2719;53.624;9.786;2023-04-12T14:51:54;4.70;;;1.43;;
5391;SDS011;2719;53.624;9.786;2023-04-12T14:54:21;3.23;;;1.07;;
5391;SDS011;2719;53.624;9.786;2023-04-12T14:56:47;3.63;;;0.70;;
5391;SDS011;2719;53.624;9.786;2023-04-12T14:59:15;5.37;;;2.57;;
5391;SDS011;2719;53.624;9.786;2023-04-12T15:01:43;4.50;;;1.27;;
5391;SDS011;2719;53.624;9.786;2023-04-12T15:04:09;3.30;;;0.80;;
5391;SDS011;2719;53.624;9.786;2023-04-12T15:06:36;1.30;;;0.77;;
5391;SDS011;2719;53.624;9.786;2023-04-12T15:09:06;2.60;;;0.90;;
5391;SDS011;2719;53.624;9.786;2023-04-12T15:11:33;1.40;;;0.90;;
5391;SDS011;2719;53.624;9.786;2023-04-12T15:14:00;3.93;;;0.70;;
5391;SDS011;2719;53.624;9.786;2023-04-12T15:16:28;8.30;;;1.13;;
5391;SDS011;2719;53.624;9.786;2023-04-12T15:18:56;5.63;;;2.30;;
5391;SDS011;2719;53.624;9.786;2023-04-12T15:21:22;1.93;;;0.87;;
5391;SDS011;2719;53.624;9.786;2023-04-12T15:23:49;3.73;;;0.80;;